Time;durP1;ratioP1;P1;durP2;ratioP2;P2;SDS_P1;SDS_P2;PMS_P1;PMS_P2;Temp;Humidity;BMP_temperature;BMP_pressure;BME280_temperature;BME280_humidity;BME280_pressure;Samples;Min_cycle;Max_cycle;Signal;HPM_P1;HPM_P2
2023/12/22 00:02:18;;;;;;;0.30;0.30;;;;;;;0.73;91.27;95490.25;5043793;28;20488;-63
2023/12/22 00:04:45;;;;;;;0.30;0.30;;;;;;;0.67;92.16;95495.16;5042580;28;20067;-62
2023/12/22 00:07:12;;;;;;;0.30;0.30;;;;;;;0.68;91.37;95485.84;5044195;28;20401;-62
2023/12/22 00:09:39;;;;;;;0.30;0.30;;;;;;;0.57;92.26;95473.84;5043917;28;20068;-62
2023/12/22 00:12:06;;;;;;;0.30;0.30;;;;;;;0.77;91.83;95508.31;5043874;28;20063;-64
2023/12/22 00:14:33;;;;;;;0.30;0.30;;;;;;;0.74;92.03;95503.56;5059049;28;20536;-63
2023/12/22 00:17:00;;;;;;;0.30;0.30;;;;;;;0.75;92.58;95491.50;5044065;28;20516;-62
2023/12/22 00:19:26;;;;;;;0.30;0.30;;;;;;;0.71;92.76;95468.81;5042638;28;20048;-63
2023/12/22 00:21:53;;;;;;;0.30;0.30;;;;;;;0.62;92.56;95486.44;5042607;28;20052;-64
2023/12/22 00:24:20;;;;;;;0.30;0.30;;;;;;;0.54;92.13;95469.09;5042716;28;20053;-62
2023/12/22 00:26:47;;;;;;;0.30;0.30;;;;;;;0.32;91.48;95423.31;5057387;28;20044;-62
2023/12/22 00:29:13;;;;;;;0.30;0.30;;;;;;;0.60;92.19;95472.38;5043404;28;20055;-63
2023/12/22 00:31:42;;;;;;;0.30;0.30;;;;;;;0.51;93.05;95496.22;5043983;28;20053;-65
2023/12/22 00:34:08;;;;;;;0.30;0.30;;;;;;;0.41;93.74;95445.75;5042360;28;20503;-62
2023/12/22 00:36:35;;;;;;;0.30;0.30;;;;;;;0.53;94.22;95445.72;5043697;28;20092;-62
2023/12/22 00:39:03;;;;;;;0.30;0.30;;;;;;;0.74;94.08;95476.31;5044002;28;20115;-65
2023/12/22 00:41:29;;;;;;;0.30;0.30;;;;;;;0.19;93.37;95372.75;5041812;28;20535;-63
2023/12/22 00:43:56;;;;;;;0.30;0.30;;;;;;;0.30;93.40;95364.91;5043536;28;20053;-62
2023/12/22 00:46:23;;;;;;;0.30;0.30;;;;;;;0.90;93.75;95471.69;5042197;28;20103;-62
2023/12/22 00:48:49;;;;;;;0.30;0.30;;;;;;;0.55;93.09;95427.13;5043592;28;20072;-63
2023/12/22 00:51:16;;;;;;;0.30;0.30;;;;;;;0.92;93.57;95444.06;5042152;28;20132;-62
2023/12/22 00:53:43;;;;;;;0.30;0.30;;;;;;;1.00;92.88;95449.38;5043597;28;20048;-62
2023/12/22 00:56:13;;;;;;;0.30;0.30;;;;;;;0.60;91.84;95375.09;5043436;28;20139;-63
2023/12/22 00:58:40;;;;;;;0.30;0.30;;;;;;;0.97;90.99;95444.63;5043359;28;20596;-65
2023/12/22 01:01:07;;;;;;;0.30;0.30;;;;;;;0.75;91.68;95437.03;5042243;28;20688;-63
2023/12/22 01:03:34;;;;;;;0.30;0.30;;;;;;;0.82;92.52;95436.44;5042051;28;20048;-64
2023/12/22 01:06:01;;;;;;;0.30;0.30;;;;;;;0.85;92.71;95425.63;5042257;28;20650;-62
2023/12/22 01:08:28;;;;;;;0.30;0.30;;;;;;;0.90;93.39;95428.06;5043122;28;20065;-64
2023/12/22 01:10:55;;;;;;;0.30;0.30;;;;;;;1.00;92.39;95422.13;5042043;28;20060;-63
2023/12/22 01:13:22;;;;;;;0.30;0.30;;;;;;;0.92;91.70;95409.44;5043357;28;20140;-63
2023/12/22 01:15:49;;;;;;;0.30;0.30;;;;;;;0.52;90.89;95340.63;5042019;28;20077;-63
2023/12/22 01:18:15;;;;;;;0.30;0.30;;;;;;;0.61;91.54;95354.91;5043678;28;20060;-62
2023/12/22 01:20:42;;;;;;;0.30;0.30;;;;;;;0.77;92.36;95396.59;5043155;28;20056;-62
2023/12/22 01:23:09;;;;;;;0.30;0.30;;;;;;;0.76;93.04;95389.56;5041520;28;20128;-62
2023/12/22 01:25:36;;;;;;;0.30;0.30;;;;;;;0.59;93.24;95367.28;5041907;28;20464;-64
2023/12/22 01:28:03;;;;;;;0.30;0.30;;;;;;;0.90;91.85;95400.81;5043599;28;20059;-62
2023/12/22 01:30:32;;;;;;;0.30;0.30;;;;;;;0.94;91.34;95399.00;5043464;28;20049;-63
2023/12/22 01:32:58;;;;;;;0.30;0.30;;;;;;;1.01;91.69;95401.91;5042866;28;20059;-63
2023/12/22 01:35:25;;;;;;;0.30;0.30;;;;;;;1.07;90.69;95392.34;5043276;28;20055;-63
2023/12/22 01:37:52;;;;;;;0.30;0.30;;;;;;;0.92;90.35;95370.50;5041912;28;20071;-62
2023/12/22 01:40:19;;;;;;;0.38;0.38;;;;;;;1.09;90.41;95370.97;5044029;28;20462;-63
2023/12/22 01:42:47;;;;;;;0.30;0.30;;;;;;;1.13;90.93;95380.03;5047334;28;20059;-63
2023/12/22 01:45:14;;;;;;;0.38;0.38;;;;;;;1.19;91.19;95370.44;5045737;28;20504;-64
2023/12/22 01:47:42;;;;;;;0.30;0.30;;;;;;;0.86;91.39;95326.38;5047076;28;20112;-62
2023/12/22 01:50:11;;;;;;;0.30;0.30;;;;;;;1.01;90.89;95355.56;5045291;28;20138;-62
2023/12/22 01:52:41;;;;;;;0.30;0.30;;;;;;;0.93;90.57;95334.72;5046864;28;20053;-63
2023/12/22 01:55:12;;;;;;;0.30;0.30;;;;;;;1.12;90.61;95358.56;5046551;28;20053;-63
2023/12/22 01:57:40;;;;;;;0.30;0.30;;;;;;;0.73;90.34;95285.91;5046583;28;20057;-62
2023/12/22 02:00:08;;;;;;;0.30;0.30;;;;;;;0.77;90.79;95325.75;5044814;28;20061;-62
2023/12/22 02:02:36;;;;;;;0.30;0.30;;;;;;;1.04;90.92;95341.22;5045090;28;20449;-63
2023/12/22 02:05:03;;;;;;;0.30;0.30;;;;;;;0.76;91.60;95301.59;5046002;28;20091;-62
2023/12/22 02:07:30;;;;;;;0.30;0.30;;;;;;;0.50;92.34;95234.00;5046335;28;20056;-65
2023/12/22 02:09:57;;;;;;;0.30;0.30;;;;;;;1.20;92.79;95322.94;5044598;28;20093;-62
2023/12/22 02:12:24;;;;;;;0.30;0.30;;;;;;;1.36;92.05;95337.38;5044803;28;20186;-62
2023/12/22 02:14:51;;;;;;;0.30;0.30;;;;;;;1.47;91.12;95337.63;5046414;28;20111;-62
2023/12/22 02:17:26;;;;;;;0.30;0.30;;;;;;;1.55;90.92;95334.69;5046446;28;20045;-63
2023/12/22 02:19:53;;;;;;;0.35;0.35;;;;;;;1.58;89.89;95321.50;5045034;28;20049;-62
2023/12/22 02:22:21;;;;;;;0.30;0.30;;;;;;;0.61;89.99;95202.38;5046358;28;20538;-62
2023/12/22 02:24:48;;;;;;;0.30;0.30;;;;;;;1.58;90.07;95325.03;5046113;28;20076;-63
2023/12/22 02:27:17;;;;;;;0.30;0.30;;;;;;;1.63;90.33;95318.50;5044361;28;20495;-63
2023/12/22 02:30:07;;;;;;;0.30;0.30;;;;;;;1.64;89.26;95325.53;5045733;28;20059;-62
2023/12/22 02:32:37;;;;;;;0.30;0.30;;;;;;;1.49;88.96;95325.22;5045894;28;20056;-63
2023/12/22 02:35:09;;;;;;;0.40;0.40;;;;;;;1.66;88.21;95302.19;5044519;28;20045;-62
2023/12/22 02:37:39;;;;;;;;;;;;;;;1.69;87.55;95308.91;5061584;28;20110;-62
2023/12/22 02:40:07;;;;;;;0.30;0.30;;;;;;;1.48;88.36;95304.56;5060970;28;20028;-62
2023/12/22 02:42:36;;;;;;;0.30;0.30;;;;;;;1.38;88.83;95307.00;5046108;28;20094;-62
2023/12/22 02:45:12;;;;;;;0.30;0.30;;;;;;;1.36;88.65;95307.38;5045306;28;20049;-62
2023/12/22 02:47:40;;;;;;;0.30;0.30;;;;;;;1.27;89.64;95325.84;5045499;28;20058;-62
2023/12/22 02:50:08;;;;;;;0.40;0.40;;;;;;;1.20;88.47;95290.22;5045532;28;20473;-62
2023/12/22 02:52:35;;;;;;;0.30;0.30;;;;;;;1.23;89.04;95284.06;5059697;28;20550;-63
2023/12/22 02:55:02;;;;;;;0.32;0.32;;;;;;;1.22;88.70;95268.88;5045611;28;20056;-62
2023/12/22 02:57:29;;;;;;;0.30;0.30;;;;;;;1.36;88.92;95303.84;5045710;28;20081;-62
2023/12/22 02:59:56;;;;;;;0.30;0.30;;;;;;;1.28;88.86;95297.44;5045340;28;20515;-62
2023/12/22 03:02:23;;;;;;;0.30;0.30;;;;;;;1.31;88.05;95274.91;5043833;28;20053;-63
2023/12/22 03:04:50;;;;;;;0.30;0.30;;;;;;;1.38;87.83;95291.44;5043624;28;20049;-62
2023/12/22 03:07:17;;;;;;;0.30;0.30;;;;;;;1.35;88.66;95275.00;5044469;28;20080;-62
2023/12/22 03:09:44;;;;;;;0.30;0.30;;;;;;;1.41;89.13;95271.66;5043565;28;20087;-62
2023/12/22 03:12:11;;;;;;;0.30;0.30;;;;;;;1.45;89.45;95318.88;5043470;28;20508;-63
2023/12/22 03:14:38;;;;;;;0.30;0.30;;;;;;;1.57;88.59;95287.97;5060084;28;21236;-62
2023/12/22 03:17:06;;;;;;;0.30;0.30;;;;;;;-0.42;88.68;94979.75;5043608;28;20111;-63
2023/12/22 03:19:33;;;;;;;0.30;0.30;;;;;;;0.80;89.02;95164.31;5044873;28;20098;-63
2023/12/22 03:22:00;;;;;;;0.40;0.40;;;;;;;1.00;88.91;95214.19;5043735;28;20064;-62
2023/12/22 03:24:28;;;;;;;0.30;0.30;;;;;;;1.50;89.45;95272.22;5044720;28;20061;-63
2023/12/22 03:26:55;;;;;;;0.40;0.40;;;;;;;1.49;89.94;95270.66;5044784;28;20138;-62
2023/12/22 03:29:23;;;;;;;0.30;0.30;;;;;;;-0.09;90.24;95018.25;5045067;28;20118;-62
2023/12/22 03:31:49;;;;;;;0.40;0.40;;;;;;;1.61;89.33;95274.41;5043544;28;20049;-62
2023/12/22 03:34:16;;;;;;;0.30;0.30;;;;;;;1.67;88.58;95275.72;5043368;28;20102;-63
2023/12/22 03:36:44;;;;;;;0.30;0.30;;;;;;;1.56;89.49;95243.53;5043220;28;20398;-63
2023/12/22 03:39:11;;;;;;;0.30;0.30;;;;;;;1.63;89.48;95269.41;5043342;28;20068;-62
2023/12/22 03:41:38;;;;;;;0.30;0.30;;;;;;;-0.18;88.03;94963.25;5044754;28;20049;-62
2023/12/22 03:44:05;;;;;;;0.30;0.30;;;;;;;1.66;89.60;95263.22;5044492;28;20408;-64
2023/12/22 03:46:32;;;;;;;0.30;0.30;;;;;;;1.65;89.58;95261.63;5059618;28;20059;-62
2023/12/22 03:48:58;;;;;;;0.30;0.30;;;;;;;1.60;90.58;95265.44;5044394;28;20060;-62
2023/12/22 03:51:25;;;;;;;0.30;0.30;;;;;;;1.79;89.23;95273.66;5042976;28;20060;-63
2023/12/22 03:53:52;;;;;;;0.30;0.30;;;;;;;1.32;89.01;95205.63;5028267;28;20044;-65
2023/12/22 03:56:19;;;;;;;0.40;0.40;;;;;;;1.80;89.43;95271.72;5043471;28;20061;-64
2023/12/22 03:58:45;;;;;;;0.30;0.30;;;;;;;1.73;89.53;95257.91;5042826;28;20049;-64
2023/12/22 04:01:14;;;;;;;0.30;0.30;;;;;;;1.67;90.48;95256.63;5043821;28;20440;-64
2023/12/22 04:03:41;;;;;;;0.30;0.30;;;;;;;1.69;91.79;95262.50;5043938;28;20505;-63
2023/12/22 04:06:08;;;;;;;0.30;0.30;;;;;;;1.13;90.62;95153.78;5042845;28;20056;-64
2023/12/22 04:08:35;;;;;;;0.30;0.30;;;;;;;1.71;89.31;95252.03;5043912;28;20069;-64
2023/12/22 04:11:01;;;;;;;0.30;0.30;;;;;;;1.71;89.59;95268.41;5043785;28;20064;-63
2023/12/22 04:13:28;;;;;;;0.30;0.30;;;;;;;1.04;91.11;95226.75;5044063;28;20049;-64
2023/12/22 04:15:55;;;;;;;0.30;0.30;;;;;;;1.02;90.20;95207.25;5042725;28;20056;-65
2023/12/22 04:18:22;;;;;;;0.30;0.30;;;;;;;1.40;90.25;95223.72;5044173;28;20045;-63
2023/12/22 04:20:53;;;;;;;0.30;0.30;;;;;;;1.72;89.74;95250.88;5042675;28;20052;-64
2023/12/22 04:23:20;;;;;;;0.30;0.30;;;;;;;1.37;89.86;95202.63;5044523;28;20347;-63
2023/12/22 04:25:47;;;;;;;0.30;0.30;;;;;;;1.03;89.85;95120.81;5042199;28;20064;-63
2023/12/22 04:28:14;;;;;;;0.30;0.30;;;;;;;1.98;89.93;95249.09;5042443;28;20056;-64
2023/12/22 04:30:41;;;;;;;0.30;0.30;;;;;;;1.95;89.24;95227.19;5044207;28;20231;-64
2023/12/22 04:33:08;;;;;;;0.30;0.30;;;;;;;2.11;89.32;95247.81;5059464;28;20049;-63
2023/12/22 04:35:35;;;;;;;0.30;0.30;;;;;;;2.20;89.00;95245.63;5042802;28;20064;-63
2023/12/22 04:38:01;;;;;;;0.30;0.30;;;;;;;2.32;88.48;95291.13;5042803;28;20076;-64
2023/12/22 04:40:28;;;;;;;0.30;0.30;;;;;;;2.18;87.72;95226.09;5043721;28;20053;-64
2023/12/22 04:42:55;;;;;;;0.30;0.30;;;;;;;1.74;87.71;95183.09;5059000;28;20285;-65
2023/12/22 04:45:22;;;;;;;0.30;0.30;;;;;;;2.36;87.28;95259.19;5043508;28;20044;-64
2023/12/22 04:47:49;;;;;;;0.30;0.30;;;;;;;2.45;87.61;95257.06;5042468;28;20080;-64
2023/12/22 04:50:16;;;;;;;0.38;0.38;;;;;;;2.44;86.83;95266.38;5042458;28;20502;-63
2023/12/22 04:52:43;;;;;;;0.32;0.32;;;;;;;2.50;87.17;95246.59;5042323;28;20057;-65
2023/12/22 04:55:10;;;;;;;0.35;0.35;;;;;;;2.52;86.89;95251.69;5042059;28;20681;-64
2023/12/22 04:57:36;;;;;;;0.40;0.40;;;;;;;2.52;86.62;95251.69;5042332;28;20063;-61
2023/12/22 05:00:04;;;;;;;0.40;0.40;;;;;;;2.55;86.11;95257.25;5043539;28;20048;-66
2023/12/22 05:02:31;;;;;;;0.40;0.40;;;;;;;2.46;86.63;95269.53;5042328;28;20503;-61
2023/12/22 05:04:58;;;;;;;0.40;0.40;;;;;;;2.41;86.76;95256.19;5043392;28;20056;-62
2023/12/22 05:07:25;;;;;;;0.30;0.30;;;;;;;2.11;87.13;95195.94;5043070;28;20521;-65
2023/12/22 05:09:52;;;;;;;0.40;0.40;;;;;;;2.13;86.65;95207.28;5043310;28;20056;-63
2023/12/22 05:12:19;;;;;;;0.35;0.35;;;;;;;2.36;87.27;95226.41;5043352;28;20397;-63
2023/12/22 05:14:46;;;;;;;0.30;0.30;;;;;;;2.51;87.66;95239.19;5042178;28;20049;-63
2023/12/22 05:17:13;;;;;;;0.38;0.38;;;;;;;2.58;87.33;95211.97;5046797;28;20548;-64
2023/12/22 05:19:40;;;;;;;0.35;0.35;;;;;;;2.68;87.13;95208.66;5047346;28;20045;-62
2023/12/22 05:22:06;;;;;;;0.38;0.38;;;;;;;2.43;87.18;95177.38;5047237;28;20053;-64
2023/12/22 05:24:33;;;;;;;0.30;0.30;;;;;;;0.66;86.75;94905.22;5045511;28;20045;-63
2023/12/22 05:27:00;;;;;;;0.30;0.30;;;;;;;2.60;87.54;95198.75;5045560;28;20106;-63
2023/12/22 05:29:27;;;;;;;0.30;0.30;;;;;;;2.75;87.20;95206.81;5046783;28;20436;-62
2023/12/22 05:31:53;;;;;;;0.40;0.40;;;;;;;2.73;87.45;95208.38;5047397;28;20063;-62
2023/12/22 05:34:20;;;;;;;0.40;0.40;;;;;;;2.79;88.08;95247.91;5062129;28;20111;-63
2023/12/22 05:36:47;;;;;;;0.30;0.30;;;;;;;2.51;87.85;95163.47;5045615;28;20057;-63
2023/12/22 05:39:14;;;;;;;0.40;0.40;;;;;;;2.69;88.34;95199.28;5046502;28;20068;-64
2023/12/22 05:41:41;;;;;;;0.40;0.40;;;;;;;2.23;90.10;95178.59;5061706;28;20424;-63
2023/12/22 05:44:08;;;;;;;0.40;0.40;;;;;;;2.54;89.71;95216.63;5047121;28;20045;-62
2023/12/22 05:46:38;;;;;;;0.30;0.30;;;;;;;2.01;92.35;95220.31;5061451;28;20053;-63
2023/12/22 05:49:05;;;;;;;0.40;0.40;;;;;;;2.25;91.74;95215.31;5045191;28;20059;-63
2023/12/22 05:51:41;;;;;;;0.30;0.30;;;;;;;1.94;92.43;95214.69;5044962;28;20144;-63
2023/12/22 05:54:10;;;;;;;0.30;0.30;;;;;;;1.31;92.54;95073.13;5044459;28;20137;-64
2023/12/22 05:56:37;;;;;;;0.30;0.30;;;;;;;2.24;92.04;95208.28;5043786;28;20055;-63
2023/12/22 05:59:03;;;;;;;0.30;0.30;;;;;;;2.00;90.96;95164.09;5044992;28;20106;-65
2023/12/22 06:01:30;;;;;;;0.30;0.30;;;;;;;2.22;90.28;95215.22;5045141;28;20052;-65
2023/12/22 06:03:57;;;;;;;0.30;0.30;;;;;;;1.06;95.58;95180.09;5060658;28;20435;-63
2023/12/22 06:06:24;;;;;;;0.30;0.30;;;;;;;1.41;96.32;95225.28;5045485;28;20520;-64
2023/12/22 06:08:51;;;;;;;0.30;0.30;;;;;;;1.77;95.13;95226.03;5045095;28;20067;-64
2023/12/22 06:11:18;;;;;;;0.30;0.30;;;;;;;1.11;94.89;95117.91;5044896;28;20079;-64
2023/12/22 06:13:44;;;;;;;0.30;0.30;;;;;;;1.56;94.38;95166.38;5045980;28;20164;-65
2023/12/22 06:16:13;;;;;;;0.30;0.30;;;;;;;1.87;93.64;95198.16;5045070;28;20215;-64
2023/12/22 06:18:41;;;;;;;0.30;0.30;;;;;;;2.34;93.16;95234.22;5046188;28;20064;-64
2023/12/22 06:21:10;;;;;;;0.30;0.30;;;;;;;2.45;92.79;95230.50;5046059;28;20647;-64
2023/12/22 06:23:37;;;;;;;0.30;0.30;;;;;;;2.62;91.22;95234.72;5046366;28;20053;-64
2023/12/22 06:26:11;;;;;;;0.30;0.30;;;;;;;2.73;91.54;95222.03;5046037;28;20049;-64
2023/12/22 06:28:39;;;;;;;0.30;0.30;;;;;;;2.62;90.73;95199.19;5043385;28;20052;-66
2023/12/22 06:31:09;;;;;;;0.40;0.40;;;;;;;2.92;89.15;95227.44;5044579;28;20060;-65
2023/12/22 06:33:35;;;;;;;0.38;0.38;;;;;;;2.35;89.65;95132.78;5044600;28;20581;-64
2023/12/22 06:36:03;;;;;;;0.40;0.40;;;;;;;3.09;89.95;95226.91;5045789;28;20135;-63
2023/12/22 06:38:31;;;;;;;0.40;0.40;;;;;;;3.14;89.66;95234.81;5061079;28;20152;-64
2023/12/22 06:40:58;;;;;;;0.40;0.40;;;;;;;3.27;88.85;95228.00;5044126;28;20049;-64
2023/12/22 06:43:24;;;;;;;0.40;0.40;;;;;;;3.29;88.40;95211.97;5045167;28;20061;-64
2023/12/22 06:45:54;;;;;;;0.40;0.40;;;;;;;2.66;88.28;95109.84;5044601;28;20450;-63
2023/12/22 06:48:21;;;;;;;0.40;0.40;;;;;;;3.66;87.18;95232.06;5045912;28;20045;-64
2023/12/22 06:50:49;;;;;;;0.40;0.40;;;;;;;3.69;87.21;95220.38;5043729;28;20550;-64
2023/12/22 06:53:16;;;;;;;0.40;0.40;;;;;;;3.46;86.69;95156.75;5044273;28;20068;-63
2023/12/22 06:55:51;;;;;;;0.30;0.30;;;;;;;3.99;85.38;95192.97;5045485;28;20045;-64
2023/12/22 06:58:21;;;;;;;0.40;0.40;;;;;;;3.94;85.15;95202.31;5046019;28;20087;-65
2023/12/22 07:00:48;;;;;;;0.40;0.40;;;;;;;3.86;84.47;95195.19;5045472;28;20053;-62
2023/12/22 07:03:16;;;;;;;0.40;0.40;;;;;;;3.99;84.73;95207.47;5045687;28;20122;-64
2023/12/22 07:05:44;;;;;;;0.40;0.40;;;;;;;3.97;84.60;95173.38;5044191;28;20057;-64
2023/12/22 07:08:11;;;;;;;0.40;0.40;;;;;;;3.81;83.78;95168.13;5045185;28;20144;-64
2023/12/22 07:10:38;;;;;;;0.40;0.40;;;;;;;2.04;86.43;94946.59;5044691;28;20554;-64
2023/12/22 07:13:06;;;;;;;0.40;0.40;;;;;;;3.56;85.78;95158.81;5045119;28;20073;-64
2023/12/22 07:15:33;;;;;;;0.40;0.40;;;;;;;3.64;84.81;95165.94;5043984;28;20059;-64
2023/12/22 07:18:01;;;;;;;0.40;0.40;;;;;;;4.05;84.68;95208.72;5045478;28;20049;-64
2023/12/22 07:20:28;;;;;;;0.40;0.40;;;;;;;4.01;84.34;95213.38;5043479;28;20057;-63
2023/12/22 07:22:56;;;;;;;0.40;0.40;;;;;;;2.95;85.31;95051.72;5038905;28;20646;-69
2023/12/22 07:25:23;;;;;;;0.40;0.40;;;;;;;4.01;84.62;95185.19;5040418;28;20052;-62
2023/12/22 07:27:51;;;;;;;0.40;0.40;;;;;;;3.91;83.32;95167.47;5041910;28;20041;-66
2023/12/22 07:30:18;;;;;;;0.43;0.43;;;;;;;3.44;83.78;95112.53;5043768;28;20134;-67
2023/12/22 07:32:51;;;;;;;0.40;0.40;;;;;;;4.02;83.91;95193.03;5044682;28;20067;-65
2023/12/22 07:35:19;;;;;;;0.40;0.40;;;;;;;4.22;83.91;95197.16;5044810;28;20486;-66
2023/12/22 07:37:46;;;;;;;0.40;0.40;;;;;;;4.05;83.55;95207.91;5044452;28;20045;-65
2023/12/22 07:40:13;;;;;;;0.40;0.40;;;;;;;2.29;83.42;94899.34;5043992;28;20049;-65
2023/12/22 07:42:43;;;;;;;0.50;0.50;;;;;;;4.56;82.30;95212.44;5044650;28;20146;-63
2023/12/22 07:45:09;;;;;;;0.40;0.40;;;;;;;4.78;83.22;95185.19;5044487;28;20076;-61
2023/12/22 07:47:37;;;;;;;0.40;0.40;;;;;;;4.78;82.48;95153.06;5045139;28;20063;-67
2023/12/22 07:50:08;;;;;;;0.50;0.50;;;;;;;4.89;80.21;95169.59;5058575;28;20896;-64
2023/12/22 07:52:38;;;;;;;0.50;0.50;;;;;;;5.25;79.68;95166.00;5047271;28;20048;-66
2023/12/22 07:55:10;;;;;;;0.50;0.50;;;;;;;5.07;78.52;95088.25;5054772;28;20061;-71
2023/12/22 07:57:38;;;;;;;0.50;0.50;;;;;;;5.53;77.17;95157.91;5059043;28;20061;-69
2023/12/22 08:00:06;;;;;;;0.50;0.50;;;;;;;5.89;76.72;95189.91;5062213;28;20135;-66
2023/12/22 08:02:33;;;;;;;0.50;0.50;;;;;;;5.76;76.06;95158.41;5043353;28;20132;-67
2023/12/22 08:04:59;;;;;;;0.45;0.45;;;;;;;5.94;74.45;95192.31;5043605;28;20063;-67
2023/12/22 08:07:27;;;;;;;0.50;0.50;;;;;;;4.94;80.30;95199.44;5043507;28;20127;-63
2023/12/22 08:09:54;;;;;;;0.40;0.40;;;;;;;3.71;87.59;95160.59;5042165;28;20064;-65
2023/12/22 08:12:20;;;;;;;0.40;0.40;;;;;;;3.38;89.68;95157.81;5043432;28;20081;-72
2023/12/22 08:14:47;;;;;;;0.43;0.43;;;;;;;3.50;89.86;95184.94;5042869;28;20578;-63
2023/12/22 08:17:14;;;;;;;0.40;0.40;;;;;;;3.39;91.35;95225.03;5042947;28;20232;-62
2023/12/22 08:19:43;;;;;;;0.35;0.35;;;;;;;1.37;93.15;94951.72;5042481;28;20182;-66
2023/12/22 08:22:14;;;;;;;0.30;0.30;;;;;;;3.13;91.29;95129.28;5033059;28;20044;-65
2023/12/22 08:24:41;;;;;;;0.40;0.40;;;;;;;4.03;90.32;95221.97;5044137;28;20098;-61
2023/12/22 08:27:09;;;;;;;0.40;0.40;;;;;;;4.26;87.27;95228.16;5043067;28;20382;-64
2023/12/22 08:29:36;;;;;;;0.40;0.40;;;;;;;4.66;87.22;95222.69;5043427;28;20384;-71
2023/12/22 08:32:03;;;;;;;0.40;0.40;;;;;;;2.99;84.05;94893.94;5042885;28;20078;-67
2023/12/22 08:34:30;;;;;;;0.50;0.50;;;;;;;5.00;81.85;95173.22;5042218;28;20048;-67
2023/12/22 08:36:57;;;;;;;0.50;0.50;;;;;;;5.66;80.15;95214.06;5057768;28;20484;-64
2023/12/22 08:39:26;;;;;;;0.50;0.50;;;;;;;5.67;77.34;95221.97;5043407;28;20111;-68
2023/12/22 08:41:54;;;;;;;0.50;0.50;;;;;;;6.10;75.47;95199.03;5046743;28;20045;-68
2023/12/22 08:44:21;;;;;;;0.60;0.60;;;;;;;5.59;75.03;95082.25;5045713;28;20634;-67
2023/12/22 08:46:48;;;;;;;0.50;0.50;;;;;;;6.53;75.39;95208.22;5040519;28;20084;-68
2023/12/22 08:49:14;;;;;;;0.60;0.60;;;;;;;6.75;74.34;95198.81;5043216;28;20495;-68
2023/12/22 08:51:42;;;;;;;0.50;0.50;;;;;;;6.55;73.53;95122.56;5041287;28;20779;-62
2023/12/22 08:54:09;;;;;;;0.60;0.60;;;;;;;5.09;70.10;94911.09;5034770;28;20416;-62
2023/12/22 08:56:36;;;;;;;0.60;0.60;;;;;;;7.20;69.93;95198.09;5041990;28;20488;-64
2023/12/22 08:59:03;;;;;;;0.60;0.60;;;;;;;6.97;70.31;95183.16;5043193;28;20701;-63
2023/12/22 09:01:30;;;;;;;0.57;0.57;;;;;;;6.34;69.92;95060.09;5042386;28;20061;-68
2023/12/22 09:03:57;;;;;;;0.60;0.60;;;;;;;7.28;69.64;95199.66;5041900;28;20664;-67
2023/12/22 09:06:24;;;;;;;0.60;0.60;;;;;;;7.30;68.53;95191.78;5039424;28;20464;-66
2023/12/22 09:08:52;;;;;;;0.65;0.65;;;;;;;6.71;68.63;95082.50;5043796;28;20121;-67
2023/12/22 09:11:21;;;;;;;0.60;0.60;;;;;;;6.90;69.42;95128.88;5040252;28;20057;-65
2023/12/22 09:13:48;;;;;;;0.60;0.60;;;;;;;6.47;69.92;95072.28;5037782;28;20049;-67
2023/12/22 09:16:21;;;;;;;0.60;0.60;;;;;;;7.36;69.74;95170.94;5041428;28;20080;-72
2023/12/22 09:18:49;;;;;;;;;;;;;;;7.38;69.41;95159.53;5041984;28;20053;-67
2023/12/22 09:21:17;;;;;;;0.70;0.70;;;;;;;7.24;69.81;95154.81;5041575;28;19929;-62
2023/12/22 09:23:46;;;;;;;0.50;0.50;;;;;;;7.17;71.18;95156.78;5041813;28;20049;-61
2023/12/22 09:26:14;;;;;;;0.70;0.70;;;;;;;6.63;70.55;95064.44;5042623;28;20451;-63
2023/12/22 09:28:41;;;;;;;0.60;0.60;;;;;;;7.43;69.82;95146.13;5050890;28;20055;-68
2023/12/22 09:31:09;;;;;;;0.60;0.60;;;;;;;7.47;69.39;95130.41;5052703;28;20084;-67
2023/12/22 09:33:36;;;;;;;0.60;0.60;;;;;;;7.27;68.61;95098.94;5042099;28;20049;-63
2023/12/22 09:36:04;;;;;;;0.60;0.60;;;;;;;6.83;69.40;95078.59;5042425;28;20151;-64
2023/12/22 09:38:30;;;;;;;0.68;0.68;;;;;;;6.05;68.40;94946.59;5042361;28;20455;-69
2023/12/22 09:40:58;;;;;;;0.60;0.60;;;;;;;7.31;67.83;95149.31;5041628;28;20466;-63
2023/12/22 09:43:25;;;;;;;0.60;0.60;;;;;;;6.23;66.97;94943.84;5043736;28;20183;-69
2023/12/22 09:45:53;;;;;;;0.65;0.65;;;;;;;5.41;67.21;94828.84;5057080;28;20052;-70
2023/12/22 09:48:32;;;;;;;0.60;0.60;;;;;;;7.20;68.30;95115.50;5034104;28;20048;-64
2023/12/22 09:51:00;;;;;;;0.60;0.60;;;;;;;7.17;71.29;95132.81;5041177;28;20519;-66
2023/12/22 09:53:30;;;;;;;0.60;0.60;;;;;;;6.45;72.08;95016.88;5058681;28;20427;-65
2023/12/22 09:55:59;;;;;;;0.60;0.60;;;;;;;7.10;72.37;95143.81;5042175;28;20049;-65
2023/12/22 09:58:26;;;;;;;0.60;0.60;;;;;;;7.20;72.26;95154.03;5065886;28;20444;-68
2023/12/22 10:00:54;;;;;;;0.60;0.60;;;;;;;5.35;71.94;94838.63;5042709;28;20080;-67
2023/12/22 10:03:24;;;;;;;0.65;0.65;;;;;;;7.47;71.68;95141.41;5042143;28;20060;-62
2023/12/22 10:05:51;;;;;;;0.60;0.60;;;;;;;7.34;70.86;95109.16;5047075;28;20114;-63
2023/12/22 10:08:20;;;;;;;0.70;0.70;;;;;;;6.01;70.25;94879.09;5043290;28;20486;-66
2023/12/22 10:10:47;;;;;;;0.60;0.60;;;;;;;7.94;70.79;95142.84;5059708;28;20049;-69
2023/12/22 10:13:15;;;;;;;0.60;0.60;;;;;;;7.97;71.00;95133.78;5045536;28;20051;-60
2023/12/22 10:15:45;;;;;;;0.63;0.63;;;;;;;7.96;71.10;95134.19;5046185;28;20330;-71
2023/12/22 10:18:12;;;;;;;0.60;0.60;;;;;;;7.94;71.29;95142.06;5030918;28;20057;-65
2023/12/22 10:20:40;;;;;;;0.70;0.70;;;;;;;7.49;70.21;95050.91;5040170;28;20485;-69
2023/12/22 10:23:07;;;;;;;0.65;0.65;;;;;;;7.51;70.65;95064.25;5048014;28;20084;-65
2023/12/22 10:25:33;;;;;;;0.60;0.60;;;;;;;7.66;71.30;95099.66;5060635;28;20067;-68
2023/12/22 10:28:01;;;;;;;0.63;0.63;;;;;;;7.05;72.58;95080.91;5045726;28;20053;-65
2023/12/22 10:30:28;;;;;;;0.60;0.60;;;;;;;6.78;75.34;95077.00;5043808;28;20057;-64
2023/12/22 10:32:55;;;;;;;0.57;0.57;;;;;;;6.73;75.00;95058.16;5049932;28;20053;-64
2023/12/22 10:35:23;;;;;;;0.60;0.60;;;;;;;7.35;73.50;95111.53;5050826;28;20059;-70
2023/12/22 10:37:53;;;;;;;0.57;0.57;;;;;;;7.14;72.46;95064.78;5045047;28;20049;-68
2023/12/22 10:40:22;;;;;;;0.60;0.60;;;;;;;6.40;72.35;94973.31;5044808;28;20101;-67
2023/12/22 10:42:50;;;;;;;0.52;0.52;;;;;;;6.85;72.61;95012.91;5045143;28;20052;-66
2023/12/22 10:45:20;;;;;;;0.60;0.60;;;;;;;7.09;73.15;95051.41;5044043;28;20907;-67
2023/12/22 10:47:50;;;;;;;0.70;0.70;;;;;;;7.50;73.05;95102.06;5058848;28;20053;-71
2023/12/22 10:50:24;;;;;;;0.60;0.60;;;;;;;6.75;75.51;95050.25;5037355;28;20053;-71
2023/12/22 10:52:51;;;;;;;0.60;0.60;;;;;;;5.86;76.52;94990.91;5044402;28;20147;-67
2023/12/22 10:55:19;;;;;;;0.60;0.60;;;;;;;6.95;77.10;95103.72;5044518;28;20091;-69
2023/12/22 10:57:46;;;;;;;0.70;0.70;;;;;;;7.11;75.00;95095.81;5043097;28;20060;-69
2023/12/22 11:00:16;;;;;;;0.60;0.60;;;;;;;6.54;73.06;94998.03;5042332;28;20045;-70
2023/12/22 11:02:46;;;;;;;0.50;0.50;;;;;;;7.67;71.68;95084.69;5044585;28;20128;-71
2023/12/22 11:05:16;;;;;;;0.63;0.63;;;;;;;7.80;69.67;95084.22;5045027;28;20071;-68
2023/12/22 11:07:48;;;;;;;0.63;0.63;;;;;;;7.68;69.48;95025.63;5040599;28;20677;-63
2023/12/22 11:10:20;;;;;;;0.70;0.70;;;;;;;8.40;68.59;95054.41;5040608;28;20065;-71
2023/12/22 11:12:48;;;;;;;0.70;0.70;;;;;;;8.51;67.04;95060.63;5035671;28;20134;-69
2023/12/22 11:15:18;;;;;;;0.70;0.70;;;;;;;7.38;66.29;94845.59;5042482;28;20048;-74
2023/12/22 11:17:46;;;;;;;0.70;0.70;;;;;;;8.99;66.49;95031.81;5044008;28;20081;-63
2023/12/22 11:20:13;;;;;;;0.70;0.70;;;;;;;8.98;65.54;94979.78;5044233;28;20088;-72
2023/12/22 11:22:42;;;;;;;0.70;0.70;;;;;;;9.64;65.83;95036.25;5042974;28;21184;-62
2023/12/22 11:25:10;;;;;;;0.80;0.80;;;;;;;9.96;65.00;95025.56;5045070;28;20506;-70
2023/12/22 11:27:43;;;;;;;0.80;0.80;;;;;;;9.37;62.89;94891.75;5044596;28;20061;-72
2023/12/22 11:30:12;;;;;;;0.70;0.70;;;;;;;10.48;61.89;95021.31;5044948;28;20060;-72
2023/12/22 11:32:39;;;;;;;0.80;0.80;;;;;;;10.55;61.49;95010.13;5036438;28;20161;-67
2023/12/22 11:35:10;;;;;;;0.80;0.80;;;;;;;10.59;60.56;94997.00;5062664;28;20053;-67
2023/12/22 11:37:38;;;;;;;0.80;0.80;;;;;;;10.78;60.92;94994.75;5042880;28;20060;-72
2023/12/22 11:40:06;;;;;;;0.90;0.90;;;;;;;10.72;59.60;94936.28;5059968;28;20455;-73
2023/12/22 11:42:38;;;;;;;0.80;0.80;;;;;;;11.06;58.31;94969.31;5044613;28;20579;-72
2023/12/22 11:45:05;;;;;;;0.80;0.80;;;;;;;10.10;59.69;94978.41;5042064;28;20521;-73